Cleveland, Ohio
Traffic Map
Current Weather Conditions
Cleveland, Ohio
Overcast Light Snow
Overcast
25°
Feels Like: 16°
Wind Chill: 16° Ceiling: 3800
Heat Index: 25° Visibility: 5mi
Dew Point: 21° Wind: 9mph
Humidity: 85% Direction: 150° (SSE)
Pressure: 30.33in Gusts: 0mph
Raw Report DataKBKL 111253Z 15008KT 5SM -SN BR BKN038 OVC070 M04/M06 A3033 RMK AO2 SLP278 P0000 T10391061
Traffic Incident Summary
Active as of:
Severity:
Category:
InformationThere was an issue retrieving the traffic information for this location. Please try a different location or try again shortly.
Advertisements
Track Severe Weather on mobile